createdAt,value
2023-12-26T00:01:47.262Z,12.50
2023-12-26T00:04:32.493Z,12.50
2023-12-26T00:07:18.033Z,12.60
2023-12-26T00:10:04.069Z,12.50
2023-12-26T00:12:49.627Z,12.50
2023-12-26T00:15:35.253Z,12.50
2023-12-26T00:18:20.829Z,12.50
2023-12-26T00:21:06.504Z,12.60
2023-12-26T00:23:51.743Z,12.50
2023-12-26T00:26:40.950Z,12.50
2023-12-26T00:29:27.209Z,12.60
2023-12-26T00:32:13.489Z,12.60
2023-12-26T00:34:59.890Z,12.50
2023-12-26T00:37:45.211Z,12.60
2023-12-26T00:40:30.751Z,12.60
2023-12-26T00:43:16.169Z,12.60
2023-12-26T00:46:01.966Z,12.60
2023-12-26T00:48:47.467Z,12.60
2023-12-26T00:51:33.153Z,12.60
2023-12-26T00:54:18.297Z,12.60
2023-12-26T00:57:04.099Z,12.60
2023-12-26T00:59:49.720Z,12.60
2023-12-26T01:02:35.346Z,12.60
2023-12-26T01:05:21.413Z,12.60
2023-12-26T01:08:07.172Z,12.60
2023-12-26T01:10:52.809Z,12.60
2023-12-26T01:13:38.309Z,12.60
2023-12-26T01:16:28.544Z,12.60
2023-12-26T01:19:15.111Z,12.60
2023-12-26T01:22:00.903Z,12.60
2023-12-26T01:24:46.359Z,12.60
2023-12-26T01:27:34.153Z,12.60
2023-12-26T01:30:20.530Z,12.60
2023-12-26T01:33:09.264Z,12.70
2023-12-26T01:35:54.978Z,12.60
2023-12-26T01:38:40.589Z,12.70
2023-12-26T01:41:26.334Z,12.70
2023-12-26T01:44:11.761Z,12.70
2023-12-26T01:46:57.506Z,12.70
2023-12-26T01:49:44.933Z,12.70
2023-12-26T01:52:31.544Z,12.70
2023-12-26T01:55:19.413Z,12.70
2023-12-26T01:58:05.450Z,12.70
2023-12-26T02:00:50.992Z,12.70
2023-12-26T02:03:36.682Z,12.70
2023-12-26T02:06:22.136Z,12.70
2023-12-26T02:09:11.513Z,12.70
2023-12-26T02:11:58.056Z,12.70
2023-12-26T02:14:45.315Z,12.80
2023-12-26T02:17:32.503Z,12.80
2023-12-26T02:20:18.102Z,12.70
2023-12-26T02:23:04.754Z,12.70
2023-12-26T02:25:52.149Z,12.70
2023-12-26T02:28:39.120Z,12.60
2023-12-26T02:31:25.548Z,12.60
2023-12-26T02:34:11.461Z,12.60
2023-12-26T02:36:57.125Z,12.50
2023-12-26T02:39:44.512Z,12.40
2023-12-26T02:42:31.192Z,12.30
2023-12-26T02:45:17.095Z,12.30
2023-12-26T02:48:02.417Z,12.30
2023-12-26T02:50:49.174Z,12.20
2023-12-26T02:53:35.229Z,12.20
2023-12-26T02:56:20.951Z,12.20
2023-12-26T02:59:06.682Z,12.10
2023-12-26T03:01:51.957Z,12.10
2023-12-26T03:04:37.617Z,12.00
2023-12-26T03:07:23.332Z,12.00
2023-12-26T03:10:10.526Z,11.90
2023-12-26T03:12:56.697Z,11.90
2023-12-26T03:15:42.581Z,11.90
2023-12-26T03:18:29.772Z,11.90
2023-12-26T03:21:15.408Z,12.00
2023-12-26T03:24:01.458Z,12.00
2023-12-26T03:26:47.339Z,12.10
2023-12-26T03:29:32.908Z,12.10
2023-12-26T03:32:22.231Z,12.10
2023-12-26T03:35:08.213Z,12.10
2023-12-26T03:37:53.771Z,12.10
2023-12-26T03:40:39.340Z,12.00
2023-12-26T03:43:24.802Z,11.90
2023-12-26T03:46:10.356Z,11.80
2023-12-26T03:48:56.285Z,11.80
2023-12-26T03:51:42.026Z,11.70
2023-12-26T03:54:27.461Z,11.60
2023-12-26T03:57:13.013Z,11.50
2023-12-26T03:59:59.328Z,11.40
2023-12-26T04:02:45.486Z,11.30
2023-12-26T04:05:33.686Z,11.20
2023-12-26T04:08:19.097Z,11.10
2023-12-26T04:11:05.120Z,11.00
2023-12-26T04:13:51.511Z,10.90
2023-12-26T04:16:37.985Z,10.90
2023-12-26T04:19:26.858Z,10.90
2023-12-26T04:22:12.528Z,10.80
2023-12-26T04:24:58.092Z,10.80
2023-12-26T04:27:43.666Z,10.70
2023-12-26T04:30:29.551Z,10.60
2023-12-26T04:33:15.312Z,10.50
2023-12-26T04:36:01.671Z,10.50
2023-12-26T04:38:47.698Z,10.50
2023-12-26T04:41:33.617Z,10.50
2023-12-26T04:44:19.456Z,10.40
2023-12-26T04:47:04.860Z,10.40
2023-12-26T04:49:51.979Z,10.30
2023-12-26T04:52:37.749Z,10.30
2023-12-26T04:55:23.645Z,10.20
2023-12-26T04:58:09.380Z,10.20
2023-12-26T05:00:55.193Z,10.20
2023-12-26T05:03:41.208Z,10.10
2023-12-26T05:06:27.104Z,10.10
2023-12-26T05:09:12.598Z,10.10
2023-12-26T05:11:58.808Z,10.00
2023-12-26T05:14:44.647Z,10.00
2023-12-26T05:17:30.375Z,10.00
2023-12-26T05:20:26.441Z,10.00
2023-12-26T05:23:16.443Z,10.00
2023-12-26T05:26:08.008Z,9.90
2023-12-26T05:29:00.085Z,10.00
2023-12-26T05:31:46.018Z,10.00
2023-12-26T05:34:31.851Z,10.00
2023-12-26T05:37:18.171Z,10.00
2023-12-26T05:40:04.223Z,9.90
2023-12-26T05:42:54.761Z,9.90
2023-12-26T05:45:43.715Z,9.90
2023-12-26T05:48:29.380Z,9.90
2023-12-26T05:51:14.937Z,9.90
2023-12-26T05:54:00.698Z,9.90
2023-12-26T05:56:47.544Z,9.90
2023-12-26T05:59:33.160Z,9.90
2023-12-26T06:02:19.706Z,9.90
2023-12-26T06:05:05.505Z,9.80
2023-12-26T06:07:51.067Z,9.80
2023-12-26T06:10:36.460Z,9.90
2023-12-26T06:13:22.510Z,9.90
2023-12-26T06:16:07.893Z,9.90
2023-12-26T06:18:55.315Z,9.90
2023-12-26T06:21:41.742Z,9.90
2023-12-26T06:24:27.329Z,9.90
2023-12-26T06:27:13.053Z,9.90
2023-12-26T06:29:58.683Z,9.90
2023-12-26T06:32:44.450Z,9.90
2023-12-26T06:35:30.818Z,9.80
2023-12-26T06:38:16.669Z,9.80
2023-12-26T06:41:03.585Z,9.80
2023-12-26T06:43:48.972Z,9.70
2023-12-26T06:46:35.586Z,9.70
2023-12-26T06:49:21.331Z,9.70
2023-12-26T06:52:08.884Z,9.70
2023-12-26T06:54:54.329Z,9.70
2023-12-26T06:57:39.672Z,9.70
2023-12-26T07:00:25.876Z,9.60
2023-12-26T07:03:12.693Z,9.70
2023-12-26T07:05:58.389Z,9.70
2023-12-26T07:08:44.164Z,9.60
2023-12-26T07:11:30.757Z,9.60
2023-12-26T07:14:19.611Z,9.60
2023-12-26T07:17:05.815Z,9.60
2023-12-26T07:19:51.322Z,9.60
2023-12-26T07:22:37.133Z,9.60
2023-12-26T07:25:22.731Z,9.70
2023-12-26T07:28:08.479Z,9.80
2023-12-26T07:30:53.879Z,9.70
2023-12-26T07:33:40.113Z,9.70
2023-12-26T07:36:25.976Z,9.70
2023-12-26T07:39:11.332Z,9.70
2023-12-26T07:41:57.181Z,9.70
2023-12-26T07:44:42.778Z,9.70
2023-12-26T07:47:28.409Z,9.70
2023-12-26T07:50:14.424Z,9.70
2023-12-26T07:52:59.865Z,9.70
2023-12-26T07:55:45.615Z,9.70
2023-12-26T07:58:31.857Z,9.70
2023-12-26T08:01:18.047Z,9.70
2023-12-26T08:04:03.998Z,9.70
2023-12-26T08:06:51.800Z,9.70
2023-12-26T08:09:37.714Z,9.70
2023-12-26T08:12:24.654Z,9.70
2023-12-26T08:15:10.903Z,9.70
2023-12-26T08:17:57.033Z,9.60
2023-12-26T08:20:42.484Z,9.60
2023-12-26T08:23:28.093Z,9.60
2023-12-26T08:26:13.782Z,9.60
2023-12-26T08:28:59.562Z,9.60
2023-12-26T08:31:45.084Z,9.60
2023-12-26T08:34:30.527Z,9.60
2023-12-26T08:37:15.913Z,9.60
2023-12-26T08:40:01.375Z,9.60
2023-12-26T08:42:47.297Z,9.60
2023-12-26T08:45:37.497Z,9.70
2023-12-26T08:48:23.341Z,9.60
2023-12-26T08:51:09.052Z,9.60
2023-12-26T08:53:55.808Z,9.60
2023-12-26T08:56:42.311Z,9.60
2023-12-26T08:59:28.176Z,9.60
2023-12-26T09:02:13.641Z,9.60
2023-12-26T09:05:00.683Z,9.60
2023-12-26T09:07:46.525Z,9.60
2023-12-26T09:10:32.082Z,9.60
2023-12-26T09:13:22.245Z,9.60
2023-12-26T09:16:09.579Z,9.70
2023-12-26T09:18:56.101Z,9.80
2023-12-26T09:21:41.632Z,9.80
2023-12-26T09:24:27.368Z,9.90
2023-12-26T09:27:12.688Z,9.90
2023-12-26T09:29:58.350Z,9.90
2023-12-26T09:32:44.020Z,10.00
2023-12-26T09:35:32.157Z,10.10
2023-12-26T09:38:20.606Z,10.10
2023-12-26T09:41:09.630Z,10.20
2023-12-26T09:43:57.248Z,10.20
2023-12-26T09:46:42.918Z,10.30
2023-12-26T09:49:29.474Z,10.40
2023-12-26T09:52:18.637Z,10.40
2023-12-26T09:55:04.757Z,10.50
2023-12-26T09:57:54.352Z,10.50
2023-12-26T10:00:40.671Z,10.60
2023-12-26T10:03:26.639Z,10.70
2023-12-26T10:06:12.571Z,10.70
2023-12-26T10:08:58.850Z,10.80
2023-12-26T10:11:45.528Z,10.90
2023-12-26T10:14:32.012Z,10.90
2023-12-26T10:17:18.715Z,11.00
2023-12-26T10:20:05.319Z,11.00
2023-12-26T10:22:50.699Z,11.10
2023-12-26T10:25:36.193Z,11.10
2023-12-26T10:28:21.931Z,11.20
2023-12-26T10:31:15.281Z,11.30
2023-12-26T10:34:18.076Z,11.40
2023-12-26T10:37:04.177Z,11.50
2023-12-26T10:39:52.948Z,11.70
2023-12-26T10:42:40.790Z,12.00
2023-12-26T10:45:26.928Z,12.40
2023-12-26T10:48:13.987Z,12.60
2023-12-26T10:51:03.453Z,12.70
2023-12-26T10:54:00.483Z,12.70
2023-12-26T10:56:47.794Z,12.70
2023-12-26T11:00:29.800Z,12.60
2023-12-26T11:04:30.403Z,12.50
2023-12-26T11:08:30.931Z,12.50
2023-12-26T11:12:31.675Z,12.50
2023-12-26T11:16:32.165Z,12.40
2023-12-26T11:20:32.679Z,12.40
2023-12-26T11:24:33.400Z,12.30
2023-12-26T11:28:33.795Z,12.30
2023-12-26T11:32:34.504Z,12.20
2023-12-26T11:36:35.315Z,12.20
2023-12-26T11:40:35.825Z,12.30
2023-12-26T11:44:36.489Z,12.40
2023-12-26T11:48:37.288Z,12.50
2023-12-26T11:52:38.303Z,12.50
2023-12-26T11:56:38.844Z,12.50
2023-12-26T12:00:39.971Z,12.40
2023-12-26T12:04:40.677Z,12.30
2023-12-26T12:08:41.312Z,12.20
2023-12-26T12:12:42.148Z,12.30
2023-12-26T12:16:42.923Z,12.20
2023-12-26T12:20:43.914Z,12.20
2023-12-26T12:24:44.702Z,12.20
2023-12-26T12:28:45.383Z,12.10
2023-12-26T12:32:46.230Z,12.00
2023-12-26T12:36:47.186Z,12.00
2023-12-26T12:40:48.254Z,12.00
2023-12-26T12:44:49.120Z,12.00
2023-12-26T12:48:49.667Z,12.00
2023-12-26T12:52:50.885Z,12.00
2023-12-26T12:56:51.589Z,12.00
2023-12-26T13:00:52.164Z,12.10
2023-12-26T13:04:52.702Z,12.10
2023-12-26T13:08:53.361Z,12.20
2023-12-26T13:12:54.437Z,12.50
2023-12-26T13:16:55.558Z,12.50
2023-12-26T13:20:56.312Z,12.60
2023-12-26T13:24:59.634Z,12.50
2023-12-26T13:29:00.988Z,12.40
2023-12-26T13:33:01.733Z,12.30
2023-12-26T13:37:02.891Z,12.20
2023-12-26T13:41:04.031Z,12.00
2023-12-26T13:45:05.161Z,11.90
2023-12-26T13:49:05.765Z,11.90
2023-12-26T13:52:47.643Z,11.80
2023-12-26T13:56:10.795Z,11.70
2023-12-26T13:59:34.001Z,11.70
2023-12-26T14:02:57.422Z,11.60
2023-12-26T14:06:21.052Z,11.60
2023-12-26T14:09:44.268Z,11.50
2023-12-26T14:12:30.820Z,11.50
2023-12-26T14:15:16.461Z,11.50
2023-12-26T14:18:40.015Z,11.40
2023-12-26T14:22:03.615Z,11.40
2023-12-26T14:25:29.162Z,11.40
2023-12-26T14:28:52.715Z,11.40
2023-12-26T14:31:38.244Z,11.40
2023-12-26T14:34:23.829Z,11.30
2023-12-26T14:37:46.772Z,11.30
2023-12-26T14:41:09.637Z,11.30
2023-12-26T14:43:56.787Z,11.30
2023-12-26T14:46:42.733Z,11.20
2023-12-26T14:49:28.813Z,11.20
2023-12-26T14:52:14.517Z,11.20
2023-12-26T14:55:00.458Z,11.20
2023-12-26T14:57:46.232Z,11.20
2023-12-26T15:00:32.158Z,11.20
2023-12-26T15:03:24.871Z,11.20
2023-12-26T15:06:17.858Z,11.10
2023-12-26T15:09:04.686Z,11.10
2023-12-26T15:11:50.407Z,11.10
2023-12-26T15:14:42.493Z,11.10
2023-12-26T15:17:29.599Z,11.10
2023-12-26T15:20:14.869Z,11.00
2023-12-26T15:23:00.618Z,11.00
2023-12-26T15:25:46.051Z,11.00
2023-12-26T15:28:31.751Z,11.00
2023-12-26T15:31:20.358Z,11.00
2023-12-26T15:34:10.566Z,11.00
2023-12-26T15:36:56.366Z,10.90
2023-12-26T15:39:43.041Z,10.80
2023-12-26T15:42:28.895Z,10.80
2023-12-26T15:45:14.823Z,10.70
2023-12-26T15:48:03.865Z,10.80
2023-12-26T15:50:50.936Z,10.70
2023-12-26T15:53:36.716Z,10.70
2023-12-26T15:56:25.044Z,10.60
2023-12-26T15:59:10.558Z,10.60
2023-12-26T16:01:55.977Z,10.60
2023-12-26T16:04:42.120Z,10.50
2023-12-26T16:07:27.359Z,10.50
2023-12-26T16:10:14.340Z,10.40
2023-12-26T16:13:00.266Z,10.30
2023-12-26T16:15:47.099Z,10.30
2023-12-26T16:18:33.083Z,10.30
2023-12-26T16:21:19.291Z,10.30
2023-12-26T16:24:05.217Z,10.20
2023-12-26T16:26:50.657Z,10.20
2023-12-26T16:29:37.890Z,10.10
2023-12-26T16:32:23.272Z,10.00
2023-12-26T16:35:09.837Z,9.80
2023-12-26T16:37:55.377Z,9.70
2023-12-26T16:40:41.707Z,9.60
2023-12-26T16:43:27.050Z,9.50
2023-12-26T16:46:13.781Z,9.40
2023-12-26T16:48:59.652Z,9.30
2023-12-26T16:51:45.043Z,9.20
2023-12-26T16:54:30.765Z,9.10
2023-12-26T16:57:16.660Z,9.10
2023-12-26T17:00:03.097Z,9.00
2023-12-26T17:02:48.826Z,8.90
2023-12-26T17:05:34.433Z,8.90
2023-12-26T17:08:19.847Z,8.80
2023-12-26T17:11:12.471Z,8.70
2023-12-26T17:13:57.952Z,8.60
2023-12-26T17:16:43.893Z,8.50
2023-12-26T17:19:30.934Z,8.40
2023-12-26T17:22:16.764Z,8.30
2023-12-26T17:25:02.115Z,8.30
2023-12-26T17:27:48.122Z,8.20
2023-12-26T17:30:33.507Z,8.10
2023-12-26T17:33:19.569Z,8.10
2023-12-26T17:36:05.647Z,8.00
2023-12-26T17:38:51.617Z,8.00
2023-12-26T17:41:37.343Z,7.90
2023-12-26T17:44:23.148Z,7.90
2023-12-26T17:47:08.809Z,7.80
2023-12-26T17:49:55.899Z,7.70
2023-12-26T17:52:42.380Z,7.70
2023-12-26T17:55:27.896Z,7.60
2023-12-26T17:58:13.250Z,7.60
2023-12-26T18:00:59.210Z,7.60
2023-12-26T18:03:45.754Z,7.60
2023-12-26T18:06:31.796Z,7.50
2023-12-26T18:09:17.561Z,7.50
2023-12-26T18:12:03.348Z,7.60
2023-12-26T18:14:48.867Z,7.50
2023-12-26T18:17:34.646Z,7.50
2023-12-26T18:20:20.090Z,7.50
2023-12-26T18:23:05.657Z,7.50
2023-12-26T18:25:52.560Z,7.40
2023-12-26T18:28:37.910Z,7.40
2023-12-26T18:31:24.021Z,7.40
2023-12-26T18:34:09.637Z,7.30
2023-12-26T18:36:56.205Z,7.30
2023-12-26T18:39:43.422Z,7.30
2023-12-26T18:42:29.697Z,7.20
2023-12-26T18:45:15.550Z,7.10
2023-12-26T18:48:01.841Z,7.10
2023-12-26T18:50:47.374Z,7.00
2023-12-26T18:53:32.979Z,7.00
2023-12-26T18:56:18.664Z,7.00
2023-12-26T18:59:04.379Z,6.90
2023-12-26T19:01:52.714Z,6.90
2023-12-26T19:04:40.867Z,6.90
2023-12-26T19:07:26.461Z,6.90
2023-12-26T19:10:11.755Z,6.90
2023-12-26T19:13:00.564Z,6.90
2023-12-26T19:15:46.403Z,6.90
2023-12-26T19:18:32.454Z,6.80
2023-12-26T19:21:18.109Z,6.80
2023-12-26T19:24:03.730Z,6.80
2023-12-26T19:26:49.571Z,6.70
2023-12-26T19:29:35.485Z,6.70
2023-12-26T19:32:20.923Z,6.70
2023-12-26T19:35:07.326Z,6.70
2023-12-26T19:37:52.646Z,6.70
2023-12-26T19:40:38.472Z,6.80
2023-12-26T19:43:23.754Z,6.80
2023-12-26T19:46:12.597Z,6.80
2023-12-26T19:48:58.209Z,6.80
2023-12-26T19:51:43.935Z,6.80
2023-12-26T19:54:30.731Z,6.80
2023-12-26T19:57:17.230Z,6.80
2023-12-26T20:00:05.345Z,6.80
2023-12-26T20:02:53.403Z,6.80
2023-12-26T20:05:39.120Z,6.70
2023-12-26T20:08:24.248Z,6.80
2023-12-26T20:13:58.325Z,6.80
2023-12-26T20:16:51.400Z,6.70
2023-12-26T20:19:38.651Z,6.70
2023-12-26T20:22:24.209Z,6.70
2023-12-26T20:25:09.640Z,6.70
2023-12-26T20:27:55.398Z,6.70
2023-12-26T20:30:40.775Z,6.70
2023-12-26T20:33:26.934Z,6.70
2023-12-26T20:36:12.148Z,6.70
2023-12-26T20:38:58.040Z,6.70
2023-12-26T20:41:44.147Z,6.60
2023-12-26T20:44:29.594Z,6.60
2023-12-26T20:47:14.976Z,6.60
2023-12-26T20:50:00.586Z,6.60
2023-12-26T20:52:46.318Z,6.60
2023-12-26T20:55:31.653Z,6.60
2023-12-26T20:58:17.232Z,6.60
2023-12-26T21:01:03.070Z,6.50
2023-12-26T21:03:49.693Z,6.60
2023-12-26T21:06:36.874Z,6.60
2023-12-26T21:09:22.452Z,6.60
2023-12-26T21:12:09.586Z,6.70
2023-12-26T21:14:55.079Z,6.70
2023-12-26T21:20:27.055Z,6.70
2023-12-26T21:23:13.730Z,6.70
2023-12-26T21:26:11.818Z,6.70
2023-12-26T21:28:57.614Z,6.70
2023-12-26T21:31:42.703Z,6.70
2023-12-26T21:34:29.421Z,6.80
2023-12-26T21:37:14.901Z,6.80
2023-12-26T21:40:02.008Z,6.80
2023-12-26T21:42:47.932Z,6.80
2023-12-26T21:45:33.308Z,6.80
2023-12-26T21:48:19.288Z,6.80
2023-12-26T21:51:12.579Z,6.80
2023-12-26T21:53:58.146Z,6.90
2023-12-26T21:56:47.057Z,6.80
2023-12-26T21:59:33.703Z,6.80
2023-12-26T22:02:19.113Z,6.80
2023-12-26T22:05:05.007Z,6.70
2023-12-26T22:07:50.477Z,6.70
2023-12-26T22:10:35.790Z,6.70
2023-12-26T22:13:21.437Z,6.70
2023-12-26T22:16:06.941Z,6.60
2023-12-26T22:18:54.527Z,6.60
2023-12-26T22:21:44.182Z,6.60
2023-12-26T22:24:29.950Z,6.60
2023-12-26T22:27:18.200Z,6.60
2023-12-26T22:30:04.105Z,6.70
2023-12-26T22:32:49.687Z,6.70
2023-12-26T22:35:36.290Z,6.70
2023-12-26T22:38:21.757Z,6.70
2023-12-26T22:41:08.635Z,6.80
2023-12-26T22:43:54.430Z,6.80
2023-12-26T22:46:39.829Z,6.80
2023-12-26T22:49:25.833Z,6.80
2023-12-26T22:52:11.462Z,6.80
2023-12-26T22:54:57.744Z,6.80
2023-12-26T22:57:43.336Z,6.80
2023-12-26T23:00:29.619Z,6.80
2023-12-26T23:03:15.324Z,6.80
2023-12-26T23:06:01.612Z,6.80
2023-12-26T23:08:47.462Z,6.80
2023-12-26T23:11:32.726Z,6.80
2023-12-26T23:14:18.251Z,6.70
2023-12-26T23:17:03.891Z,6.70
2023-12-26T23:19:49.596Z,6.60
2023-12-26T23:22:35.219Z,6.60
2023-12-26T23:25:20.634Z,6.50
2023-12-26T23:28:08.034Z,6.50
2023-12-26T23:30:53.571Z,6.40
2023-12-26T23:33:39.586Z,6.40
2023-12-26T23:36:24.898Z,6.40
2023-12-26T23:39:10.714Z,6.50
2023-12-26T23:42:00.714Z,6.40
2023-12-26T23:44:45.993Z,6.50
2023-12-26T23:47:31.469Z,6.40
2023-12-26T23:50:17.103Z,6.30
2023-12-26T23:53:05.146Z,6.30
2023-12-26T23:55:53.538Z,6.30
2023-12-26T23:58:39.973Z,6.30
